Ana Sayfa
METAR-TAF:

METAR-TAF

Havaalanları :

Hagerstown, Maryland, Amerika Birleşik Devletleri

Enlem: 39-42-21N, Boylam: 077-43-48W, yükseklik: 214 m

Güncel hava durumu gözlemi

Rapor saat 21:53 UTC de 1 saat ve 3 dakika önce yapıldı.
Rüzgar batı/kuzeybatıdan 10 kt
Sıcaklık 14°C
Nem 63%
Basınç 1016 hPa
Görüş mesafesi: 16.1 km
4400 ft yükseklikte çok bulutlu

METAR: KHGR 232153Z 29010KT 10SM OVC044 14/07 A3001 RMK AO2 SLP170 T01390072 $

Saat: 18:56 (22:56 UTC)


TAF: eksik

4.000'den fazla havaalanı için hava durumu gözlemleri ve tahminleri (METAR ve TAF raporları).

Kullanılabilir istasyonlar harita üzerinde sarı ve kırmızı noktalarla gösterilir.

İstasyonun adını görmek için fareyi noktanın üzerinde gezdirin.

Sonrasında hava gözlem ve tahminlerini görmek için tıklayın.

Haritayı değiştirmek için: yaklaştırmak için siyah artı işaretli yeşil düğmeye ve uzaklaştırmak için de eksi işaretli düğmeye hızla tıklayın; bitişik haritalar için yeşil okları kullanın.


METAR-TAF: